Metar z pełnej godziny Komunikat METAR ze strony awiacja.imgw.pl Metar G00 EPMO METAR EPMO 070000Z 19003KT 0800 R08/1000D -SN FG OVC005 00/00 Q1008 =